RLSO2: Arkansas River, Ralston, OK

                                SHEF ID:       RLSO2     Arkansas River at Ralston, OK
STATION TYPE:
Regulating: Stage = 16.00, Flow = 78729

PRECIP STAGE STAGE(2) RIV-FLOW AIR-TEMP BAT-LOAD
in ft ft cfs F volt
Ccp-Rev Ccp-Rev Ccp-Rev Ccp-Rev Ccp-Rev Ccp-Rev
(America/Chicago)
03/26 00:00 0.00 3.31 3.39 437 76.64 12.77
03/26 01:00 0.00 3.31 3.39 437 75.74 12.77
03/26 02:00 0.00 3.32 3.40 443 74.12 12.76
03/26 03:00 0.00 3.31 3.41 437 72.50 12.75
03/26 04:00 0.00 3.32 3.39 443 71.42 12.75
03/26 05:00 0.00 3.32 3.39 443 70.16 12.74
03/26 06:00 0.00 3.30 3.39 430 68.36 12.73
03/26 07:00 0.00 3.30 3.40 430 67.10 12.73
03/26 08:00 0.00 3.32 3.39 443 68.00 12.73
03/26 09:00 0.00 3.28 3.37 417 73.04 12.74
03/26 10:00 0.00 3.30 3.36 430 77.36 12.91
03/26 11:00 0.00 3.27 3.35 410 82.04 13.09
03/26 12:00 0.00 3.30 3.35 430 85.82 13.18
03/26 13:00 0.00 3.30 3.37 430 88.70 13.20
03/26 14:00 0.00 3.30 3.36 430 91.04 13.22
03/26 15:00 0.00 3.30 3.38 430 92.30 13.18
03/26 16:00 0.00 3.33 3.36 450 93.02 13.13
03/26 17:00 0.00 3.29 3.37 423 92.48 12.86
03/26 18:00 0.00 3.27 3.39 410 91.04 12.83
03/26 19:00 0.00 3.31 3.38 437 88.16 12.82
03/26 20:00 0.00 3.30 3.40 430 85.28 12.81
03/26 21:00 0.00 3.31 3.38 437 82.94 12.80
03/26 22:00 0.00 3.30 3.36 430 80.96 12.79
03/26 23:00 0.00 3.29 3.39 423 78.80 12.78
Data processed at Fri 27Mar2026 04:21 GMT

NOTICE: If you are parsing this page

Please convert to using our Data API. Starting early 2026 we will be migrating to: https://water.usace.army.mil with modern pages rendered in JavaScript. When this migration completes you will no longer be able to scrape this page! CWMSDataAPI (CDA)

Timeseries IDs (TSIDs)

TSIDs used from left to right in the data table
RALS.Precip-Inc.Total.1Hour.1Hour.Ccp-Rev
RALS.Stage.Inst.1Hour.0.Ccp-Rev
RALS.Stage-Alt.Inst.1Hour.0.Ccp-Rev
RALS.Flow.Inst.1Hour.0.Ccp-Rev
RALS.Temp-Air.Inst.1Hour.0.Ccp-Rev
RALS.Volt-Battery Load.Inst.1Hour.0.Ccp-Rev

                            

All information presented herein is the property of the government of the United States of America and may be revised or deleted at any time without prior notice. Dissemination of this information without the expressed written consent of the Public Affairs Office, Tulsa District U.S. Army Corps of Engineers is strictly prohibited. These data are gathered electronically and, as presented, have NOT undergone any form of quality control. These data are NOT guaranteed to be valid or correct.